Time;durP1;ratioP1;P1;durP2;ratioP2;P2;SDS_P1;SDS_P2;PMS_P1;PMS_P2;Temp;Humidity;BMP_temperature;BMP_pressure;BME280_temperature;BME280_humidity;BME280_pressure;Samples;Min_cycle;Max_cycle;Signal;HPM_P1;HPM_P2
2022/09/02 00:00:48;;;;;;;7.43;2.55;;;;;;;16.64;51.18;101581.31;5101986;28;20118;-58
2022/09/02 00:03:14;;;;;;;4.10;2.60;;;;;;;16.57;51.49;101583.88;5102414;28;20034;-56
2022/09/02 00:05:40;;;;;;;6.75;2.70;;;;;;;16.62;51.08;101584.16;5102846;28;20027;-57
2022/09/02 00:08:06;;;;;;;5.57;2.63;;;;;;;16.58;51.36;101584.72;5102675;28;20027;-58
2022/09/02 00:10:34;;;;;;;6.35;2.60;;;;;;;16.54;51.40;101577.03;5103092;28;20047;-56
2022/09/02 00:12:59;;;;;;;6.80;2.80;;;;;;;16.47;51.99;101570.75;5102657;28;20038;-57
2022/09/02 00:15:25;;;;;;;4.38;2.50;;;;;;;16.45;51.60;101572.78;5102584;28;20404;-59
2022/09/02 00:17:51;;;;;;;4.78;2.65;;;;;;;16.47;51.98;101576.09;5102530;28;20124;-56
2022/09/02 00:20:17;;;;;;;6.40;2.70;;;;;;;16.35;52.11;101578.41;5102505;28;20057;-57
2022/09/02 00:22:43;;;;;;;3.58;2.60;;;;;;;16.34;52.23;101571.38;5102446;28;20027;-58
2022/09/02 00:25:08;;;;;;;8.52;2.90;;;;;;;16.29;52.43;101567.59;5100053;28;20023;-57
2022/09/02 00:27:34;;;;;;;5.13;2.90;;;;;;;16.27;52.26;101571.28;5100518;28;20548;-57
2022/09/02 00:29:59;;;;;;;4.35;2.60;;;;;;;16.24;52.45;101566.28;5101805;28;20032;-56
2022/09/02 00:32:24;;;;;;;3.80;2.70;;;;;;;16.16;52.46;101566.38;5102244;28;20132;-58
2022/09/02 00:34:49;;;;;;;5.32;2.80;;;;;;;16.23;52.59;101564.63;5101903;28;20057;-57
2022/09/02 00:37:16;;;;;;;7.50;2.72;;;;;;;16.09;53.08;101568.09;5097063;28;20047;-56
2022/09/02 00:39:41;;;;;;;3.00;2.70;;;;;;;16.08;53.06;101566.44;5095692;28;20027;-56
2022/09/02 00:42:06;;;;;;;5.25;2.75;;;;;;;16.09;53.16;101568.91;5102239;28;20428;-58
2022/09/02 00:44:33;;;;;;;8.55;2.80;;;;;;;15.96;53.17;101560.69;5101113;28;20035;-57
2022/09/02 00:46:59;;;;;;;6.95;2.95;;;;;;;16.05;53.12;101564.13;5102025;28;20036;-57
2022/09/02 00:49:28;;;;;;;8.35;2.60;;;;;;;16.04;53.08;101546.41;5101743;28;20507;-57
2022/09/02 00:52:09;;;;;;;4.38;2.60;;;;;;;16.11;52.83;101560.72;5101625;28;20050;-57
2022/09/02 00:54:47;;;;;;;4.78;2.70;;;;;;;16.10;53.29;101553.72;5101618;28;20488;-57
2022/09/02 00:57:18;;;;;;;5.35;2.70;;;;;;;16.05;53.36;101553.41;5101745;28;20074;-56
2022/09/02 01:00:16;;;;;;;6.72;2.90;;;;;;;16.16;52.75;101553.00;5101557;28;20044;-57
2022/09/02 01:02:45;;;;;;;5.13;2.83;;;;;;;16.00;53.44;101554.78;5102077;28;20028;-57
2022/09/02 01:05:14;;;;;;;5.95;2.63;;;;;;;15.93;53.77;101548.50;5101573;28;20036;-57
2022/09/02 01:07:40;;;;;;;5.28;2.70;;;;;;;15.95;53.86;101549.16;5101932;28;20456;-56
2022/09/02 01:10:10;;;;;;;6.13;2.90;;;;;;;15.87;53.96;101546.50;5100857;28;20476;-57
2022/09/02 01:12:36;;;;;;;3.60;2.60;;;;;;;15.74;54.43;101550.63;5096651;28;20036;-58
2022/09/02 01:15:04;;;;;;;8.95;2.75;;;;;;;15.83;54.20;101543.38;5100919;28;20065;-57
2022/09/02 01:17:33;;;;;;;5.28;2.78;;;;;;;15.82;53.99;101546.22;5099326;28;20511;-57
2022/09/02 01:20:04;;;;;;;6.43;2.60;;;;;;;15.81;54.47;101544.56;5101446;28;20031;-56
2022/09/02 01:22:31;;;;;;;4.78;2.83;;;;;;;15.81;54.38;101540.06;5097179;28;20462;-57
2022/09/02 01:25:02;;;;;;;5.20;2.80;;;;;;;15.74;54.23;101545.28;5101975;28;20110;-56
2022/09/02 01:27:28;;;;;;;5.85;2.70;;;;;;;15.73;54.33;101546.28;5101488;28;20062;-57
2022/09/02 01:29:57;;;;;;;5.43;2.85;;;;;;;15.76;54.63;101546.94;5101254;28;20063;-56
2022/09/02 01:32:24;;;;;;;5.40;2.70;;;;;;;15.74;54.38;101539.91;5100609;28;20027;-57
2022/09/02 01:34:50;;;;;;;3.95;2.80;;;;;;;15.68;54.71;101550.47;5101266;28;20499;-56
2022/09/02 01:37:17;;;;;;;6.03;2.80;;;;;;;15.62;54.83;101544.03;5100868;28;20032;-56
2022/09/02 01:39:44;;;;;;;3.95;2.67;;;;;;;15.66;54.78;101545.34;5101448;28;20051;-57
2022/09/02 01:42:10;;;;;;;4.30;2.92;;;;;;;15.63;54.85;101540.34;5101246;28;20164;-57
2022/09/02 01:44:42;;;;;;;4.38;2.83;;;;;;;15.65;54.57;101540.16;5101476;28;20402;-56
2022/09/02 01:47:20;;;;;;;6.10;2.92;;;;;;;15.58;55.02;101540.03;5095004;28;20043;-57
2022/09/02 01:49:46;;;;;;;6.10;2.78;;;;;;;15.57;55.00;101533.03;5101000;28;20047;-58
2022/09/02 01:52:14;;;;;;;6.15;2.90;;;;;;;15.54;55.26;101536.88;5101454;28;20039;-58
2022/09/02 01:54:39;;;;;;;5.20;2.80;;;;;;;15.50;55.20;101534.75;5100608;28;20386;-57
2022/09/02 01:57:04;;;;;;;5.78;3.03;;;;;;;15.48;55.08;101534.09;5101375;28;20080;-55
2022/09/02 01:59:30;;;;;;;4.32;3.00;;;;;;;15.48;55.01;101534.09;5100607;28;20027;-57
2022/09/02 02:01:55;;;;;;;5.20;2.90;;;;;;;15.42;55.17;101528.47;5098806;28;20122;-57
2022/09/02 02:04:23;;;;;;;5.63;3.28;;;;;;;15.38;55.61;101532.47;5084565;28;20024;-59
2022/09/02 02:06:49;;;;;;;5.18;3.00;;;;;;;15.36;55.31;101536.34;5087084;28;20043;-57
2022/09/02 02:09:15;;;;;;;5.43;3.00;;;;;;;15.31;55.58;101534.19;5100943;28;20385;-57
2022/09/02 02:11:42;;;;;;;5.30;3.28;;;;;;;15.31;55.68;101534.19;5100528;28;20581;-56
2022/09/02 02:14:07;;;;;;;4.18;3.08;;;;;;;15.27;56.05;101532.88;5099772;28;20035;-57
2022/09/02 02:16:33;;;;;;;10.05;3.10;;;;;;;15.19;55.90;101529.25;5100574;28;20039;-57
2022/09/02 02:18:58;;;;;;;6.93;3.00;;;;;;;15.15;56.04;101529.78;5100729;28;20030;-57
2022/09/02 02:21:24;;;;;;;5.10;3.20;;;;;;;15.22;56.20;101529.91;5100079;28;20038;-57
2022/09/02 02:23:49;;;;;;;4.97;2.90;;;;;;;15.20;56.45;101528.25;5088292;28;20107;-56
2022/09/02 02:26:15;;;;;;;5.50;3.35;;;;;;;15.20;55.70;101530.91;5100662;28;20046;-56
2022/09/02 02:28:40;;;;;;;6.20;3.30;;;;;;;15.14;56.36;101520.94;5099789;28;20138;-57
2022/09/02 02:31:06;;;;;;;3.40;3.10;;;;;;;15.19;56.32;101525.72;5100469;28;20031;-56
2022/09/02 02:33:31;;;;;;;4.40;3.20;;;;;;;15.24;56.07;101519.88;5100408;28;20472;-58
2022/09/02 02:35:58;;;;;;;6.05;3.35;;;;;;;15.11;56.28;101531.13;5100394;28;20019;-56
2022/09/02 02:38:23;;;;;;;7.10;3.35;;;;;;;15.15;56.33;101525.25;5098927;28;20084;-56
2022/09/02 02:40:52;;;;;;;4.85;3.20;;;;;;;15.18;56.23;101518.72;5088290;28;20595;-57
2022/09/02 02:43:18;;;;;;;3.70;3.30;;;;;;;15.13;56.23;101521.94;5100247;28;20112;-56
2022/09/02 02:45:43;;;;;;;7.07;3.40;;;;;;;15.15;56.23;101514.56;5100137;28;20914;-56
2022/09/02 02:48:08;;;;;;;5.43;3.30;;;;;;;15.13;56.81;101516.59;5099619;28;20038;-58
2022/09/02 02:50:33;;;;;;;7.40;3.30;;;;;;;15.16;56.25;101516.22;5100463;28;20492;-56
2022/09/02 02:53:01;;;;;;;4.72;3.22;;;;;;;15.13;56.47;101521.09;5099854;28;20032;-57
2022/09/02 02:55:26;;;;;;;6.32;3.17;;;;;;;15.16;56.66;101513.56;5100196;28;20062;-57
2022/09/02 02:57:52;;;;;;;5.57;3.10;;;;;;;15.19;56.74;101515.03;5099672;28;20550;-57
2022/09/02 03:00:22;;;;;;;6.57;3.28;;;;;;;15.16;56.66;101516.22;5100508;28;20051;-57
2022/09/02 03:02:48;;;;;;;8.10;2.90;;;;;;;15.15;56.77;101514.56;5100063;28;20047;-56
2022/09/02 03:05:14;;;;;;;5.43;3.20;;;;;;;15.12;56.49;101504.25;5100078;28;20687;-57
2022/09/02 03:07:40;;;;;;;6.45;3.20;;;;;;;15.10;56.77;101508.91;5099515;28;20035;-58
2022/09/02 03:10:07;;;;;;;5.60;3.28;;;;;;;15.11;56.60;101510.59;5100211;28;20536;-56
2022/09/02 03:12:34;;;;;;;4.57;3.28;;;;;;;15.11;56.84;101509.75;5097780;28;20036;-58
2022/09/02 03:15:00;;;;;;;5.00;3.17;;;;;;;15.10;56.83;101505.44;5079724;28;20040;-58
2022/09/02 03:17:26;;;;;;;6.15;3.20;;;;;;;15.02;56.81;101504.47;5092825;28;20028;-57
2022/09/02 03:19:52;;;;;;;6.13;3.40;;;;;;;14.99;57.09;101510.16;5100089;28;20081;-57
2022/09/02 03:22:18;;;;;;;4.57;3.10;;;;;;;15.04;56.92;101507.78;5100227;28;20032;-56
2022/09/02 03:24:44;;;;;;;4.90;3.45;;;;;;;15.03;57.18;101506.13;5100281;28;20354;-58
2022/09/02 03:27:09;;;;;;;5.00;3.33;;;;;;;14.91;57.11;101503.00;5098753;28;20035;-55
2022/09/02 03:29:35;;;;;;;6.97;3.20;;;;;;;14.95;57.03;101505.34;5100212;28;20030;-57
2022/09/02 03:32:00;;;;;;;6.78;3.33;;;;;;;14.88;57.23;101508.72;5099976;28;20120;-56
2022/09/02 03:34:26;;;;;;;6.43;3.35;;;;;;;14.89;57.16;101499.69;5099589;28;20499;-56
2022/09/02 03:36:51;;;;;;;7.97;3.33;;;;;;;14.89;57.58;101505.03;5100206;28;20082;-56
2022/09/02 03:39:16;;;;;;;9.60;3.85;;;;;;;14.89;57.23;101499.69;5083929;28;20088;-57
2022/09/02 03:41:42;;;;;;;5.85;3.38;;;;;;;14.88;57.45;101498.03;5103381;28;20030;-55
2022/09/02 03:44:08;;;;;;;7.22;3.70;;;;;;;14.81;57.22;101491.72;5102581;28;20559;-58
2022/09/02 03:46:34;;;;;;;8.75;3.60;;;;;;;14.77;57.67;101493.06;5103257;28;20040;-56
2022/09/02 03:49:00;;;;;;;5.38;3.60;;;;;;;14.81;57.62;101490.88;5102856;28;20059;-57
2022/09/02 03:51:26;;;;;;;4.47;3.53;;;;;;;14.72;57.93;101492.72;5102950;28;20569;-56
2022/09/02 03:53:52;;;;;;;6.50;3.42;;;;;;;14.71;57.99;101491.06;5103180;28;20625;-56
2022/09/02 03:56:18;;;;;;;6.38;3.50;;;;;;;14.60;58.29;101485.09;5102607;28;20030;-56
2022/09/02 03:58:46;;;;;;;6.30;3.65;;;;;;;14.65;58.00;101488.06;5102508;28;20046;-54
2022/09/02 04:01:17;;;;;;;8.07;3.60;;;;;;;14.70;57.78;101490.22;5099826;28;20034;-56
2022/09/02 04:03:43;;;;;;;3.85;3.22;;;;;;;14.66;58.16;101481.72;5100955;28;20366;-57
2022/09/02 04:06:11;;;;;;;5.15;3.70;;;;;;;14.73;58.15;101483.69;5084852;28;20063;-57
2022/09/02 04:08:40;;;;;;;7.78;3.70;;;;;;;14.68;58.29;101486.06;5081614;28;20644;-56
2022/09/02 04:11:08;;;;;;;7.68;3.90;;;;;;;14.63;58.08;101490.09;5082530;28;20494;-57
2022/09/02 04:13:34;;;;;;;6.88;3.80;;;;;;;14.62;58.58;101487.59;5094235;28;20035;-56
2022/09/02 04:16:05;;;;;;;8.13;3.78;;;;;;;14.57;58.48;101473.91;5102676;28;20032;-56
2022/09/02 04:18:30;;;;;;;7.38;3.70;;;;;;;14.60;58.39;101479.75;5102033;28;20020;-58
2022/09/02 04:20:59;;;;;;;5.22;4.07;;;;;;;14.56;58.57;101478.41;5102147;28;20061;-58
2022/09/02 04:23:24;;;;;;;7.97;4.00;;;;;;;14.51;58.64;101481.59;5101531;28;20050;-58
2022/09/02 04:25:49;;;;;;;9.90;3.95;;;;;;;14.51;58.94;101475.47;5102947;28;20027;-56
2022/09/02 04:28:15;;;;;;;6.85;3.92;;;;;;;14.48;58.72;101473.13;5102372;28;20031;-56
2022/09/02 04:30:41;;;;;;;9.27;4.03;;;;;;;14.47;58.79;101474.13;5101767;28;20078;-58
2022/09/02 04:33:07;;;;;;;9.18;4.30;;;;;;;14.46;58.72;101467.13;5101160;28;20506;-56
2022/09/02 04:35:34;;;;;;;11.32;4.22;;;;;;;14.41;59.07;101459.63;5102199;28;20107;-56
2022/09/02 04:38:01;;;;;;;8.10;3.90;;;;;;;14.44;59.27;101469.13;5102755;28;20085;-57
2022/09/02 04:40:26;;;;;;;10.40;4.38;;;;;;;14.37;59.14;101469.81;5102166;28;20601;-58
2022/09/02 04:42:52;;;;;;;7.68;4.20;;;;;;;14.41;59.40;101469.47;5100474;28;20126;-57
2022/09/02 04:45:17;;;;;;;8.07;3.83;;;;;;;14.38;59.38;101470.66;5101546;28;20024;-54
2022/09/02 04:47:43;;;;;;;10.75;4.60;;;;;;;14.33;59.55;101467.66;5101873;28;20059;-56
2022/09/02 04:50:08;;;;;;;8.43;4.32;;;;;;;14.36;59.41;101468.16;5100116;28;20119;-56
2022/09/02 04:52:33;;;;;;;8.93;4.38;;;;;;;14.37;59.49;101460.97;5102621;28;20055;-56
2022/09/02 04:54:59;;;;;;;9.05;4.13;;;;;;;14.39;59.55;101466.97;5101968;28;20492;-58
2022/09/02 04:57:25;;;;;;;9.52;4.53;;;;;;;14.39;59.77;101465.16;5100522;28;20024;-57
2022/09/02 04:59:50;;;;;;;7.90;4.45;;;;;;;14.38;59.81;101466.16;5100650;28;20039;-55
2022/09/02 05:02:15;;;;;;;7.85;4.28;;;;;;;14.46;60.01;101470.63;5099729;28;20483;-57
2022/09/02 05:04:41;;;;;;;10.40;4.85;;;;;;;14.35;60.13;101471.81;5101809;28;20028;-57
2022/09/02 05:07:06;;;;;;;10.55;4.90;;;;;;;14.38;59.92;101468.81;5101381;28;20176;-56
2022/09/02 05:09:32;;;;;;;15.95;5.38;;;;;;;14.43;59.97;101468.31;5101382;28;20027;-57
2022/09/02 05:11:58;;;;;;;11.07;5.05;;;;;;;14.51;59.82;101470.13;5101702;28;20055;-56
2022/09/02 05:14:24;;;;;;;11.73;4.60;;;;;;;14.55;59.87;101476.75;5101539;28;20038;-57
2022/09/02 05:16:52;;;;;;;9.45;5.18;;;;;;;14.56;59.94;101469.59;5101028;28;20032;-56
2022/09/02 05:19:20;;;;;;;10.50;4.57;;;;;;;14.53;60.00;101476.09;5101206;28;20514;-57
2022/09/02 05:21:46;;;;;;;16.02;5.35;;;;;;;14.58;60.17;101471.09;5101369;28;20034;-56
2022/09/02 05:24:12;;;;;;;13.00;5.50;;;;;;;14.58;59.83;101476.44;5100721;28;20036;-56
2022/09/02 05:26:37;;;;;;;12.40;5.43;;;;;;;14.52;60.17;101474.44;5101325;28;20046;-57
2022/09/02 05:29:05;;;;;;;18.70;5.60;;;;;;;14.56;60.29;101472.25;5101196;28;20038;-57
2022/09/02 05:31:31;;;;;;;13.43;5.60;;;;;;;14.60;60.10;101479.75;5101383;28;20023;-57
2022/09/02 05:33:56;;;;;;;14.70;5.80;;;;;;;14.61;60.15;101476.06;5100953;28;20031;-58
2022/09/02 05:36:22;;;;;;;14.95;5.80;;;;;;;14.61;60.61;101470.72;5099970;28;20030;-56
2022/09/02 05:38:48;;;;;;;18.75;5.90;;;;;;;14.69;60.23;101471.72;5100950;28;20020;-57
2022/09/02 05:41:18;;;;;;;21.92;5.93;;;;;;;14.66;60.30;101473.72;5100934;28;20488;-57
2022/09/02 05:43:44;;;;;;;15.82;6.25;;;;;;;14.71;60.26;101469.69;5101042;28;20480;-56
2022/09/02 05:46:16;;;;;;;19.40;5.63;;;;;;;14.69;60.47;101469.06;5101025;28;20031;-57
2022/09/02 05:51:26;;;;;;;18.55;6.05;;;;;;;14.78;60.41;101476.03;5098530;28;21132;-56
2022/09/02 05:53:56;;;;;;;18.58;6.05;;;;;;;14.76;60.71;101462.03;5101128;28;20035;-56
2022/09/02 05:56:22;;;;;;;17.73;6.55;;;;;;;14.83;60.34;101468.34;5100734;28;20040;-56
2022/09/02 05:58:48;;;;;;;15.65;6.20;;;;;;;14.89;60.12;101472.97;5100526;28;20050;-56
2022/09/02 06:01:15;;;;;;;26.58;6.93;;;;;;;14.85;60.38;101470.84;5100309;28;20472;-56
2022/09/02 06:03:40;;;;;;;23.85;6.30;;;;;;;14.89;60.40;101467.63;5100432;28;20039;-56
2022/09/02 06:06:06;;;;;;;16.75;6.53;;;;;;;14.92;60.32;101461.94;5098994;28;20039;-57
2022/09/02 06:08:33;;;;;;;17.98;7.10;;;;;;;14.90;60.69;101458.63;5100876;28;20028;-56
2022/09/02 06:11:01;;;;;;;20.98;7.45;;;;;;;14.97;60.76;101471.28;5100507;28;20023;-58
2022/09/02 06:13:32;;;;;;;19.58;7.53;;;;;;;14.93;60.46;101460.94;5100437;28;20404;-56
2022/09/02 06:15:58;;;;;;;22.50;7.65;;;;;;;15.01;60.81;101467.25;5100491;28;20032;-57
2022/09/02 06:18:24;;;;;;;21.90;7.72;;;;;;;15.07;60.64;101463.88;5100427;28;20053;-56
2022/09/02 06:20:49;;;;;;;19.50;7.95;;;;;;;15.11;60.76;101470.53;5099991;28;20040;-56
2022/09/02 06:23:16;;;;;;;23.55;8.90;;;;;;;15.14;60.41;101472.84;5100219;28;20034;-56
2022/09/02 06:25:43;;;;;;;26.98;8.95;;;;;;;15.20;60.32;101469.47;5100228;28;20481;-57
2022/09/02 06:28:10;;;;;;;28.38;9.32;;;;;;;15.23;60.40;101464.75;5100976;28;20128;-56
2022/09/02 06:30:38;;;;;;;28.98;9.60;;;;;;;15.21;60.80;101459.63;5100570;28;20027;-56
2022/09/02 06:33:04;;;;;;;27.05;9.27;;;;;;;15.27;60.37;101466.09;5099899;28;20024;-56
2022/09/02 06:35:33;;;;;;;27.83;10.02;;;;;;;15.28;60.74;101467.75;5100346;28;20098;-57
2022/09/02 06:37:59;;;;;;;26.65;10.55;;;;;;;15.29;60.50;101469.44;5081666;28;20377;-56
2022/09/02 06:40:25;;;;;;;30.40;10.50;;;;;;;15.33;61.29;101468.88;5100399;28;20093;-57
2022/09/02 06:42:50;;;;;;;27.77;11.25;;;;;;;15.35;60.55;101460.69;5100567;28;20032;-57
2022/09/02 06:45:15;;;;;;;32.80;12.02;;;;;;;15.43;59.71;101457.97;5099971;28;20412;-58
2022/09/02 06:47:41;;;;;;;27.15;11.70;;;;;;;15.48;60.30;101459.28;5100215;28;20088;-56
2022/09/02 06:50:07;;;;;;;31.05;13.25;;;;;;;15.54;60.14;101454.03;5095622;28;20048;-56
2022/09/02 06:52:33;;;;;;;31.08;12.32;;;;;;;15.57;59.58;101453.69;5100175;28;20103;-57
2022/09/02 06:54:58;;;;;;;27.60;12.93;;;;;;;15.61;60.13;101454.16;5098609;28;20453;-57
2022/09/02 06:57:24;;;;;;;34.03;13.18;;;;;;;15.66;60.10;101457.13;5100077;28;20080;-57
2022/09/02 06:59:49;;;;;;;33.17;14.07;;;;;;;15.69;59.56;101462.09;5100199;28;20035;-56
2022/09/02 07:02:14;;;;;;;32.65;13.90;;;;;;;15.73;60.04;101451.84;5100102;28;20051;-57
2022/09/02 07:07:24;;;;;;;31.50;14.05;;;;;;;15.86;59.49;101451.25;5098400;28;20092;-58
2022/09/02 07:09:49;;;;;;;32.60;14.52;;;;;;;15.93;60.01;101449.53;5099582;28;20422;-57
2022/09/02 07:12:16;;;;;;;31.30;14.90;;;;;;;15.93;59.84;101444.19;5100224;28;20529;-59
2022/09/02 07:14:42;;;;;;;36.47;15.30;;;;;;;16.04;59.28;101453.59;5103889;28;20031;-57
2022/09/02 07:17:09;;;;;;;36.63;15.52;;;;;;;16.09;59.30;101447.72;5102931;28;20506;-57
2022/09/02 07:19:35;;;;;;;40.88;15.48;;;;;;;16.16;59.05;101445.13;5101538;28;20113;-58
2022/09/02 07:22:04;;;;;;;38.10;16.25;;;;;;;16.22;58.33;101444.38;5101055;28;20029;-57
2022/09/02 07:24:29;;;;;;;38.75;16.60;;;;;;;16.25;58.78;101442.16;5103876;28;20120;-56
2022/09/02 07:26:55;;;;;;;34.03;16.85;;;;;;;16.30;59.07;101444.31;5104091;28;20588;-58
2022/09/02 07:29:20;;;;;;;35.13;16.73;;;;;;;16.38;59.06;101443.41;5103906;28;20106;-56
2022/09/02 07:31:47;;;;;;;38.17;17.55;;;;;;;16.43;58.59;101435.63;5103515;28;20027;-57
2022/09/02 07:34:13;;;;;;;39.47;17.30;;;;;;;16.50;58.79;101441.06;5101747;28;20032;-57
2022/09/02 07:36:40;;;;;;;38.20;17.88;;;;;;;16.60;58.25;101435.41;5103690;28;20027;-56
2022/09/02 07:39:08;;;;;;;37.80;18.10;;;;;;;16.62;58.79;101434.22;5101440;28;20045;-57
2022/09/02 07:41:33;;;;;;;36.40;17.77;;;;;;;16.69;57.89;101442.34;5088723;28;20380;-56
2022/09/02 07:43:59;;;;;;;38.83;18.05;;;;;;;16.74;58.63;101431.91;5107918;28;20031;-56
2022/09/02 07:46:24;;;;;;;33.55;17.52;;;;;;;16.80;57.86;101433.81;5106103;28;20039;-56
2022/09/02 07:48:50;;;;;;;37.55;17.35;;;;;;;16.86;58.49;101434.91;5104748;28;20142;-57
2022/09/02 07:51:17;;;;;;;39.22;17.80;;;;;;;16.92;57.47;101433.31;5103236;28;20089;-56
2022/09/02 07:53:43;;;;;;;41.25;17.77;;;;;;;17.00;57.83;101435.03;5103728;28;20027;-57
2022/09/02 07:56:09;;;;;;;42.13;18.98;;;;;;;17.01;57.36;101432.19;5102600;28;20039;-57
2022/09/02 07:58:35;;;;;;;37.95;18.15;;;;;;;17.08;56.86;101438.47;5103147;28;20028;-56
2022/09/02 08:01:01;;;;;;;35.92;18.13;;;;;;;17.13;56.15;101434.41;5102492;28;20024;-57
2022/09/02 08:03:27;;;;;;;39.38;18.50;;;;;;;17.20;56.96;101435.28;5102329;28;20467;-56
2022/09/02 08:05:53;;;;;;;39.85;18.55;;;;;;;17.25;56.89;101438.22;5101765;28;20019;-57
2022/09/02 08:08:19;;;;;;;38.55;19.08;;;;;;;17.29;56.28;101444.03;5103212;28;20358;-57
2022/09/02 08:10:47;;;;;;;35.13;18.30;;;;;;;17.27;55.54;101428.13;5102415;28;20042;-56
2022/09/02 08:13:13;;;;;;;39.33;18.90;;;;;;;17.38;55.48;101431.31;5103016;28;20118;-56
2022/09/02 08:15:39;;;;;;;36.33;17.63;;;;;;;17.42;55.57;101422.69;5102966;28;20083;-57
2022/09/02 08:18:05;;;;;;;33.72;17.73;;;;;;;17.50;55.38;101427.09;5101873;28;20035;-57
2022/09/02 08:20:31;;;;;;;35.65;18.27;;;;;;;17.56;55.25;101431.69;5101680;28;20114;-58
2022/09/02 08:22:57;;;;;;;35.90;17.52;;;;;;;17.59;54.95;101428.63;5101940;28;20126;-55
2022/09/02 08:25:23;;;;;;;37.05;17.20;;;;;;;17.66;54.78;101434.03;5101529;28;20700;-57
2022/09/02 08:27:48;;;;;;;34.17;16.80;;;;;;;17.71;54.39;101422.75;5102595;28;20089;-58
2022/09/02 08:30:14;;;;;;;36.42;16.88;;;;;;;17.78;55.97;101426.28;5102635;28;20080;-57
2022/09/02 08:32:40;;;;;;;40.22;17.30;;;;;;;17.86;56.53;101423.44;5102807;28;20063;-58
2022/09/02 08:35:08;;;;;;;38.40;17.83;;;;;;;17.94;55.00;101418.94;5102887;28;20092;-56
2022/09/02 08:37:34;;;;;;;36.05;17.27;;;;;;;18.02;54.84;101421.50;5083615;28;20035;-57
2022/09/02 08:40:05;;;;;;;38.75;17.75;;;;;;;18.11;55.39;101414.16;5101373;28;20563;-55
2022/09/02 08:42:32;;;;;;;32.72;16.90;;;;;;;18.18;54.36;101416.84;5100540;28;20096;-56
2022/09/02 08:45:20;;;;;;;40.30;17.08;;;;;;;18.26;54.47;101411.34;5101627;28;21043;-56
2022/09/02 08:47:50;;;;;;;34.42;17.38;;;;;;;18.32;54.31;101410.53;5102069;28;20042;-56
2022/09/02 08:50:18;;;;;;;29.52;16.20;;;;;;;18.41;54.21;101416.56;5102177;28;20055;-56
2022/09/02 08:53:07;;;;;;;31.10;16.48;;;;;;;18.50;54.07;101415.34;5101413;28;20040;-57
2022/09/02 08:55:45;;;;;;;34.90;16.38;;;;;;;18.58;54.00;101413.53;5102221;28;20101;-57
2022/09/02 08:58:16;;;;;;;32.70;16.05;;;;;;;18.65;54.16;101422.47;5101901;28;20028;-57
2022/09/02 09:00:44;;;;;;;32.17;15.70;;;;;;;18.69;54.48;101421.00;5101363;28;20271;-58
2022/09/02 09:03:25;;;;;;;33.28;15.38;;;;;;;18.76;54.01;101415.66;5101436;28;20038;-57
2022/09/02 09:06:00;;;;;;;33.38;15.82;;;;;;;18.84;53.75;101423.53;5101931;28;20034;-56
2022/09/02 09:08:56;;;;;;;32.45;15.35;;;;;;;18.90;53.66;101427.28;5101767;28;20076;-57
2022/09/02 09:11:38;;;;;;;31.05;14.65;;;;;;;18.94;53.59;101418.59;5101607;28;20453;-58
2022/09/02 09:14:23;;;;;;;30.88;13.63;;;;;;;19.00;54.22;101424.19;5100976;28;20031;-57
2022/09/02 09:17:33;;;;;;;27.88;13.48;;;;;;;19.08;53.63;101432.94;5102338;28;20023;-56
2022/09/02 09:20:02;;;;;;;26.75;12.88;;;;;;;19.17;54.06;101417.44;5101073;28;20039;-57
2022/09/02 09:22:32;;;;;;;27.48;12.13;;;;;;;19.19;53.32;101415.34;5101343;28;20146;-58
2022/09/02 09:24:57;;;;;;;27.73;11.65;;;;;;;19.30;54.00;101421.16;5101470;28;20510;-56
2022/09/02 09:27:23;;;;;;;26.55;11.63;;;;;;;19.34;52.61;101411.66;5094652;28;20039;-59
2022/09/02 09:29:49;;;;;;;25.55;10.57;;;;;;;19.39;52.26;101414.53;5100269;28;20024;-56
2022/09/02 09:32:32;;;;;;;22.23;9.77;;;;;;;19.47;52.97;101413.50;5101340;28;20477;-56
2022/09/02 09:35:12;;;;;;;23.33;10.10;;;;;;;19.55;52.43;101412.47;5100798;28;20063;-56
2022/09/02 09:37:44;;;;;;;21.50;8.32;;;;;;;19.62;52.14;101408.75;5099908;28;20027;-56
2022/09/02 09:40:21;;;;;;;20.98;8.07;;;;;;;19.71;51.71;101404.00;5101645;28;20031;-56
2022/09/02 09:43:12;;;;;;;22.90;8.50;;;;;;;19.85;52.30;101406.66;5101003;28;20180;-56
2022/09/02 09:45:43;;;;;;;20.95;8.18;;;;;;;19.96;51.60;101406.03;5085333;28;20067;-57
2022/09/02 09:48:14;;;;;;;18.42;7.85;;;;;;;20.08;51.50;101405.41;5101253;28;20066;-56
2022/09/02 09:50:40;;;;;;;17.17;8.05;;;;;;;20.14;50.25;101393.78;5097588;28;20071;-56
2022/09/02 09:53:20;;;;;;;21.20;7.43;;;;;;;20.24;50.47;101398.72;5096313;28;20069;-56
2022/09/02 09:55:57;;;;;;;18.60;7.03;;;;;;;20.33;50.53;101391.22;5101160;28;20046;-56
2022/09/02 09:58:31;;;;;;;14.77;5.88;;;;;;;20.45;49.89;101394.91;5100784;28;20585;-56
2022/09/02 10:00:59;;;;;;;11.77;5.00;;;;;;;20.59;49.98;101394.81;5100925;28;20020;-56
2022/09/02 10:03:26;;;;;;;12.20;4.85;;;;;;;20.68;48.70;101382.78;5100765;28;20031;-56
2022/09/02 10:05:55;;;;;;;11.20;5.13;;;;;;;20.83;49.32;101385.97;5096084;28;20028;-56
2022/09/02 10:08:24;;;;;;;15.88;5.20;;;;;;;20.98;48.84;101376.81;5100731;28;20035;-58
2022/09/02 10:11:01;;;;;;;14.80;4.43;;;;;;;21.13;49.61;101381.03;5100834;28;20481;-57
2022/09/02 10:13:32;;;;;;;13.77;4.05;;;;;;;21.26;48.40;101378.22;5100626;28;20392;-56
2022/09/02 10:16:30;;;;;;;11.18;3.50;;;;;;;21.36;48.44;101367.78;5099477;28;20051;-58
2022/09/02 10:19:21;;;;;;;8.70;3.42;;;;;;;21.57;47.81;101379.19;5099895;28;20316;-57
2022/09/02 10:22:18;;;;;;;7.28;3.15;;;;;;;21.69;47.39;101371.22;5052582;28;20122;-58
2022/09/02 10:25:03;;;;;;;7.70;3.10;;;;;;;21.87;46.00;101378.50;5100834;28;20028;-56
2022/09/02 10:27:35;;;;;;;8.63;3.03;;;;;;;22.09;45.67;101366.44;5100693;28;20039;-59
2022/09/02 10:30:21;;;;;;;7.15;3.25;;;;;;;22.15;44.51;101358.25;5100550;28;20034;-58
2022/09/02 10:33:08;;;;;;;9.85;3.10;;;;;;;22.30;44.45;101362.47;5098189;28;20040;-57
2022/09/02 10:35:41;;;;;;;4.70;2.70;;;;;;;22.40;43.83;101359.22;5100691;28;20464;-58
2022/09/02 10:38:30;;;;;;;7.50;3.30;;;;;;;22.51;42.55;101368.41;5082049;28;20088;-57
2022/09/02 10:41:20;;;;;;;7.95;2.80;;;;;;;22.68;43.04;101355.94;5094269;28;20047;-58
2022/09/02 10:44:26;;;;;;;7.80;3.20;;;;;;;22.67;43.27;101354.28;5100278;28;20411;-57
2022/09/02 10:47:19;;;;;;;8.20;2.90;;;;;;;22.80;42.43;101347.84;5099955;28;20333;-57
2022/09/02 10:49:59;;;;;;;6.40;2.80;;;;;;;23.08;41.52;101348.25;5098989;28;20051;-57
2022/09/02 10:52:31;;;;;;;7.85;2.85;;;;;;;23.17;39.89;101351.44;5103546;28;20027;-57
2022/09/02 10:55:25;;;;;;;8.25;2.90;;;;;;;23.25;39.63;101338.38;5104293;28;20035;-57
2022/09/02 10:57:59;;;;;;;5.55;2.58;;;;;;;23.37;40.10;101345.72;5104461;28;20032;-60
2022/09/02 11:00:27;;;;;;;4.32;2.60;;;;;;;23.41;38.69;101338.78;5104754;28;20115;-59
2022/09/02 11:03:06;;;;;;;6.80;2.65;;;;;;;23.47;39.51;101329.72;5104186;28;20024;-57
2022/09/02 11:05:37;;;;;;;6.28;2.80;;;;;;;23.64;38.19;101339.81;5102230;28;20519;-58
2022/09/02 11:08:39;;;;;;;6.57;2.75;;;;;;;23.62;39.30;101326.53;5103797;28;20042;-56
2022/09/02 11:11:11;;;;;;;5.03;2.70;;;;;;;23.77;38.26;101317.91;5103872;28;20092;-58
2022/09/02 11:13:51;;;;;;;6.90;2.65;;;;;;;23.87;38.05;101321.88;5104110;28;20480;-57
2022/09/02 11:16:20;;;;;;;4.60;2.72;;;;;;;23.89;36.14;101315.16;5104025;28;20114;-57
2022/09/02 11:18:56;;;;;;;5.50;2.80;;;;;;;23.94;36.90;101317.16;5103436;28;20088;-58
2022/09/02 11:21:43;;;;;;;5.43;2.70;;;;;;;24.00;37.33;101309.94;5102864;28;20096;-57
2022/09/02 11:24:14;;;;;;;5.88;2.70;;;;;;;24.03;37.36;101307.56;5103760;28;21004;-56
2022/09/02 11:26:55;;;;;;;9.07;2.67;;;;;;;24.20;37.08;101293.28;5102305;28;20028;-57
2022/09/02 11:29:31;;;;;;;4.60;2.70;;;;;;;24.34;37.07;101293.81;5103428;28;20494;-57
2022/09/02 11:32:16;;;;;;;4.88;2.70;;;;;;;24.45;35.96;101294.81;5102914;28;20066;-59
2022/09/02 11:34:48;;;;;;;5.43;2.70;;;;;;;24.52;36.47;101298.19;5102610;28;20248;-57